createdAt,value
2023-03-27T00:00:59.987Z,77.05
2023-03-27T00:02:00.024Z,77.26
2023-03-27T00:03:00.034Z,77.15
2023-03-27T00:04:00.044Z,77.47
2023-03-27T00:04:59.996Z,77.26
2023-03-27T00:05:59.957Z,77.36
2023-03-27T00:06:59.956Z,77.36
2023-03-27T00:07:59.933Z,77.36
2023-03-27T00:08:59.890Z,77.47
2023-03-27T00:09:59.875Z,77.15
2023-03-27T00:10:59.910Z,77.26
2023-03-27T00:11:59.909Z,77.26
2023-03-27T00:12:59.845Z,77.36
2023-03-27T00:13:59.842Z,77.67
2023-03-27T00:14:59.843Z,77.78
2023-03-27T00:15:59.802Z,77.47
2023-03-27T00:16:59.902Z,77.36
2023-03-27T00:17:59.825Z,77.26
2023-03-27T00:18:59.876Z,77.47
2023-03-27T00:19:59.761Z,77.50
2023-03-27T00:20:59.768Z,77.81
2023-03-27T00:21:59.757Z,77.92
2023-03-27T00:23:00.312Z,77.92
2023-03-27T00:23:59.726Z,77.92
2023-03-27T00:24:59.816Z,77.92
2023-03-27T00:25:59.690Z,77.92
2023-03-27T00:26:59.675Z,77.71
2023-03-27T00:27:59.672Z,77.81
2023-03-27T00:28:59.678Z,77.92
2023-03-27T00:29:59.634Z,78.02
2023-03-27T00:30:59.940Z,78.12
2023-03-27T00:31:59.640Z,78.12
2023-03-27T00:32:59.616Z,78.44
2023-03-27T00:33:59.599Z,78.44
2023-03-27T00:34:59.585Z,78.54
2023-03-27T00:35:59.604Z,78.68
2023-03-27T00:36:59.754Z,78.75
2023-03-27T00:37:59.541Z,78.64
2023-03-27T00:38:59.523Z,78.75
2023-03-27T00:39:59.538Z,78.89
2023-03-27T00:41:00.007Z,78.99
2023-03-27T00:41:59.491Z,79.10
2023-03-27T00:42:59.472Z,79.10
2023-03-27T00:43:59.579Z,79.20
2023-03-27T00:44:59.489Z,79.20
2023-03-27T00:45:59.513Z,79.20
2023-03-27T00:46:59.455Z,78.68
2023-03-27T00:47:59.518Z,78.99
2023-03-27T00:48:59.414Z,79.51
2023-03-27T00:49:59.376Z,79.41
2023-03-27T00:50:59.386Z,79.30
2023-03-27T00:51:59.352Z,79.10
2023-03-27T00:52:59.335Z,78.68
2023-03-27T00:53:59.376Z,78.99
2023-03-27T00:54:59.298Z,79.10
2023-03-27T00:55:59.327Z,78.99
2023-03-27T00:56:59.357Z,78.99
2023-03-27T00:57:59.332Z,79.10
2023-03-27T00:58:59.268Z,79.30
2023-03-27T00:59:59.251Z,79.20
2023-03-27T01:00:59.364Z,79.41
2023-03-27T01:01:59.286Z,79.30
2023-03-27T01:03:01.081Z,79.41
2023-03-27T01:03:59.250Z,79.51
2023-03-27T01:04:59.209Z,79.71
2023-03-27T01:05:59.207Z,79.71
2023-03-27T01:06:59.241Z,79.82
2023-03-27T01:08:00.786Z,80.02
2023-03-27T01:08:59.132Z,80.13
2023-03-27T01:09:59.134Z,80.13
2023-03-27T01:10:59.128Z,80.23
2023-03-27T01:11:59.103Z,80.44
2023-03-27T01:12:59.080Z,80.44
2023-03-27T01:13:59.063Z,80.44
2023-03-27T01:14:59.079Z,80.68
2023-03-27T01:15:59.123Z,80.58
2023-03-27T01:16:59.039Z,80.99
2023-03-27T01:17:59.099Z,80.99
2023-03-27T01:18:59.010Z,81.10
2023-03-27T01:19:58.998Z,81.20
2023-03-27T01:20:59.730Z,81.41
2023-03-27T01:21:59.009Z,81.62
2023-03-27T01:22:58.963Z,81.97
2023-03-27T01:24:00.755Z,82.18
2023-03-27T01:24:58.920Z,82.28
2023-03-27T01:25:58.903Z,82.39
2023-03-27T01:26:58.956Z,82.59
2023-03-27T01:27:58.889Z,82.59
2023-03-27T01:28:58.850Z,82.70
2023-03-27T01:29:58.862Z,82.70
2023-03-27T01:30:59.160Z,82.70
2023-03-27T01:31:58.860Z,82.70
2023-03-27T01:32:58.879Z,82.80
2023-03-27T01:33:58.852Z,83.01
2023-03-27T01:35:01.175Z,83.01
2023-03-27T01:35:58.833Z,83.22
2023-03-27T01:36:58.828Z,83.22
2023-03-27T01:37:58.834Z,83.36
2023-03-27T01:38:58.848Z,83.56
2023-03-27T01:39:58.717Z,83.77
2023-03-27T01:40:58.829Z,83.77
2023-03-27T01:41:58.740Z,83.98
2023-03-27T01:42:58.718Z,83.87
2023-03-27T01:43:58.673Z,83.87
2023-03-27T01:44:58.709Z,83.87
2023-03-27T01:45:58.658Z,83.87
2023-03-27T01:46:58.651Z,83.87
2023-03-27T01:47:58.715Z,83.77
2023-03-27T01:48:58.624Z,83.98
2023-03-27T01:49:58.643Z,83.77
2023-03-27T01:50:58.810Z,83.77
2023-03-27T01:51:58.597Z,83.67
2023-03-27T01:52:58.592Z,83.67
2023-03-27T01:53:58.593Z,83.46
2023-03-27T01:54:58.568Z,83.25
2023-03-27T01:55:58.571Z,83.25
2023-03-27T01:56:58.544Z,83.36
2023-03-27T01:57:58.544Z,83.36
2023-03-27T01:58:58.488Z,83.36
2023-03-27T01:59:58.556Z,83.36
2023-03-27T02:00:59.484Z,83.46
2023-03-27T02:01:58.476Z,83.56
2023-03-27T02:02:58.537Z,83.36
2023-03-27T02:03:58.443Z,83.67
2023-03-27T02:04:58.467Z,83.77
2023-03-27T02:05:58.513Z,83.77
2023-03-27T02:06:58.412Z,83.77
2023-03-27T02:07:58.380Z,83.77
2023-03-27T02:08:58.393Z,83.56
2023-03-27T02:09:58.329Z,83.56
2023-03-27T02:10:58.652Z,83.56
2023-03-27T02:11:58.345Z,83.46
2023-03-27T02:12:58.296Z,83.46
2023-03-27T02:13:58.283Z,83.67
2023-03-27T02:15:23.949Z,83.67
2023-03-27T02:15:59.339Z,83.87
2023-03-27T02:16:58.242Z,83.98
2023-03-27T02:17:58.278Z,83.67
2023-03-27T02:18:58.247Z,83.56
2023-03-27T02:19:58.204Z,83.25
2023-03-27T02:20:58.341Z,83.46
2023-03-27T02:21:58.165Z,83.56
2023-03-27T02:22:58.237Z,83.36
2023-03-27T02:23:58.201Z,83.46
2023-03-27T02:24:58.161Z,83.67
2023-03-27T02:25:58.155Z,83.46
2023-03-27T02:26:58.137Z,83.56
2023-03-27T02:27:58.141Z,83.50
2023-03-27T02:28:58.110Z,83.60
2023-03-27T02:29:58.092Z,83.70
2023-03-27T02:31:07.029Z,83.70
2023-03-27T02:31:59.088Z,82.87
2023-03-27T02:32:58.110Z,82.15
2023-03-27T02:33:58.087Z,82.87
2023-03-27T02:34:58.025Z,83.18
2023-03-27T02:35:58.050Z,83.29
2023-03-27T02:36:58.005Z,82.87
2023-03-27T02:37:58.020Z,82.46
2023-03-27T02:38:58.001Z,81.42
2023-03-27T02:39:57.980Z,81.87
2023-03-27T02:40:58.064Z,81.94
2023-03-27T02:41:57.987Z,82.35
2023-03-27T02:42:57.959Z,81.94
2023-03-27T02:43:57.925Z,80.00
2023-03-27T02:44:57.893Z,79.69
2023-03-27T02:45:57.935Z,79.90
2023-03-27T02:46:57.857Z,80.11
2023-03-27T02:47:57.930Z,80.32
2023-03-27T02:48:57.855Z,79.69
2023-03-27T02:49:57.830Z,79.69
2023-03-27T02:50:58.137Z,80.00
2023-03-27T02:51:57.810Z,80.11
2023-03-27T02:52:57.828Z,80.32
2023-03-27T02:53:57.815Z,79.90
2023-03-27T02:54:57.763Z,80.00
2023-03-27T02:55:57.755Z,80.11
2023-03-27T02:56:57.765Z,79.41
2023-03-27T02:57:57.766Z,79.52
2023-03-27T02:58:57.761Z,79.94
2023-03-27T02:59:57.773Z,80.15
2023-03-27T03:00:57.901Z,80.46
2023-03-27T03:01:57.698Z,80.25
2023-03-27T03:02:57.732Z,80.46
2023-03-27T03:03:57.710Z,80.46
2023-03-27T03:04:57.630Z,79.83
2023-03-27T03:05:57.638Z,79.41
2023-03-27T03:06:57.620Z,79.10
2023-03-27T03:07:57.648Z,78.79
2023-03-27T03:08:57.591Z,78.89
2023-03-27T03:09:57.598Z,78.48
2023-03-27T03:10:57.742Z,78.48
2023-03-27T03:11:57.558Z,78.58
2023-03-27T03:12:57.600Z,78.27
2023-03-27T03:13:57.555Z,78.69
2023-03-27T03:14:57.522Z,78.89
2023-03-27T03:15:57.542Z,79.00
2023-03-27T03:16:57.572Z,78.89
2023-03-27T03:17:57.515Z,78.69
2023-03-27T03:18:57.486Z,78.79
2023-03-27T03:19:57.462Z,79.10
2023-03-27T03:20:57.614Z,79.03
2023-03-27T03:21:57.462Z,78.93
2023-03-27T03:22:57.452Z,79.03
2023-03-27T03:23:58.914Z,79.14
2023-03-27T03:24:57.485Z,79.24
2023-03-27T03:25:57.402Z,79.55
2023-03-27T03:26:57.363Z,79.66
2023-03-27T03:27:57.373Z,79.87
2023-03-27T03:28:59.739Z,79.97
2023-03-27T03:29:57.351Z,80.18
2023-03-27T03:30:57.541Z,80.29
2023-03-27T03:31:57.319Z,80.29
2023-03-27T03:32:57.317Z,80.39
2023-03-27T03:33:57.314Z,80.60
2023-03-27T03:34:57.265Z,80.70
2023-03-27T03:35:57.335Z,80.70
2023-03-27T03:36:57.513Z,80.80
2023-03-27T03:37:57.271Z,80.91
2023-03-27T03:38:57.246Z,81.12
2023-03-27T03:39:57.201Z,81.22
2023-03-27T03:40:57.408Z,81.22
2023-03-27T03:41:57.213Z,81.43
2023-03-27T03:42:57.195Z,81.53
2023-03-27T03:43:57.142Z,81.63
2023-03-27T03:44:57.143Z,81.74
2023-03-27T03:45:57.168Z,81.95
2023-03-27T03:46:57.147Z,81.53
2023-03-27T03:47:57.195Z,81.84
2023-03-27T03:48:58.978Z,82.09
2023-03-27T03:49:57.100Z,82.20
2023-03-27T03:50:57.465Z,82.09
2023-03-27T03:52:03.825Z,82.20
2023-03-27T03:52:58.060Z,81.98
2023-03-27T03:53:57.037Z,81.98
2023-03-27T03:54:57.019Z,82.09
2023-03-27T03:55:57.032Z,82.09
2023-03-27T03:56:57.050Z,81.88
2023-03-27T03:57:56.975Z,81.67
2023-03-27T03:58:56.946Z,81.36
2023-03-27T03:59:56.956Z,81.26
2023-03-27T04:00:57.279Z,80.84
2023-03-27T04:01:56.969Z,81.05
2023-03-27T04:02:57.155Z,81.05
2023-03-27T04:03:56.954Z,81.26
2023-03-27T04:04:56.877Z,80.94
2023-03-27T04:05:56.935Z,81.05
2023-03-27T04:06:56.858Z,81.15
2023-03-27T04:07:56.891Z,81.05
2023-03-27T04:08:56.818Z,81.15
2023-03-27T04:09:56.807Z,81.26
2023-03-27T04:10:57.038Z,81.46
2023-03-27T04:11:56.813Z,81.36
2023-03-27T04:12:56.788Z,81.50
2023-03-27T04:14:03.778Z,81.57
2023-03-27T04:14:56.746Z,81.60
2023-03-27T04:15:56.809Z,81.81
2023-03-27T04:16:56.719Z,81.71
2023-03-27T04:17:56.797Z,81.81
2023-03-27T04:18:56.764Z,81.50
2023-03-27T04:19:56.665Z,81.71
2023-03-27T04:20:56.825Z,81.81
2023-03-27T04:21:56.662Z,81.50
2023-03-27T04:22:56.616Z,81.29
2023-03-27T04:23:56.626Z,81.19
2023-03-27T04:24:56.601Z,80.57
2023-03-27T04:25:56.634Z,80.67
2023-03-27T04:26:56.603Z,80.46
2023-03-27T04:27:56.599Z,80.46
2023-03-27T04:28:56.563Z,80.67
2023-03-27T04:29:56.546Z,80.88
2023-03-27T04:30:56.693Z,80.67
2023-03-27T04:31:56.534Z,80.67
2023-03-27T04:32:56.516Z,80.15
2023-03-27T04:33:56.545Z,80.05
2023-03-27T04:34:56.480Z,80.05
2023-03-27T04:36:05.991Z,79.83
2023-03-27T04:36:57.536Z,79.63
2023-03-27T04:37:56.478Z,79.63
2023-03-27T04:38:56.443Z,79.73
2023-03-27T04:39:56.456Z,79.73
2023-03-27T04:40:56.644Z,79.83
2023-03-27T04:41:56.443Z,79.94
2023-03-27T04:42:56.427Z,79.73
2023-03-27T04:43:56.384Z,79.94
2023-03-27T04:44:56.390Z,80.15
2023-03-27T04:45:56.357Z,80.15
2023-03-27T04:46:56.485Z,80.46
2023-03-27T04:47:56.427Z,80.88
2023-03-27T04:48:56.337Z,81.09
2023-03-27T04:49:56.316Z,81.60
2023-03-27T04:50:56.547Z,81.92
2023-03-27T04:51:56.326Z,82.17
2023-03-27T04:52:56.274Z,82.37
2023-03-27T04:53:56.302Z,82.68
2023-03-27T04:54:56.237Z,82.89
2023-03-27T04:55:56.218Z,82.79
2023-03-27T04:56:56.246Z,82.79
2023-03-27T04:57:56.191Z,82.58
2023-03-27T04:58:56.210Z,82.27
2023-03-27T04:59:56.186Z,82.17
2023-03-27T05:00:56.702Z,82.27
2023-03-27T05:01:56.147Z,81.96
2023-03-27T05:02:56.297Z,81.75
2023-03-27T05:03:56.107Z,81.96
2023-03-27T05:04:56.111Z,81.96
2023-03-27T05:05:56.152Z,81.54
2023-03-27T05:06:56.086Z,81.75
2023-03-27T05:07:56.055Z,81.33
2023-03-27T05:08:56.079Z,81.23
2023-03-27T05:09:56.038Z,81.33
2023-03-27T05:10:56.168Z,81.33
2023-03-27T05:11:56.007Z,81.43
2023-03-27T05:12:58.312Z,81.54
2023-03-27T05:13:55.992Z,81.12
2023-03-27T05:14:56.501Z,81.33
2023-03-27T05:15:55.989Z,81.23
2023-03-27T05:16:55.961Z,81.33
2023-03-27T05:17:56.027Z,80.91
2023-03-27T05:18:55.935Z,81.12
2023-03-27T05:19:55.926Z,81.23
2023-03-27T05:20:56.069Z,81.33
2023-03-27T05:21:55.884Z,81.54
2023-03-27T05:22:55.883Z,81.85
2023-03-27T05:23:55.854Z,82.17
2023-03-27T05:24:55.876Z,82.27
2023-03-27T05:25:59.723Z,82.27
2023-03-27T05:26:56.820Z,82.48
2023-03-27T05:27:55.898Z,82.37
2023-03-27T05:28:55.813Z,82.37
2023-03-27T05:29:55.772Z,82.37
2023-03-27T05:30:56.130Z,82.37
2023-03-27T05:31:55.750Z,82.58
2023-03-27T05:32:55.813Z,82.48
2023-03-27T05:33:55.750Z,82.27
2023-03-27T05:34:55.728Z,82.48
2023-03-27T05:35:55.738Z,82.48
2023-03-27T05:36:55.712Z,82.37
2023-03-27T05:37:55.707Z,82.37
2023-03-27T05:38:55.719Z,82.48
2023-03-27T05:39:55.669Z,82.48
2023-03-27T05:40:55.928Z,82.58
2023-03-27T05:41:55.638Z,82.54
2023-03-27T05:42:55.621Z,82.13
2023-03-27T05:43:55.637Z,82.23
2023-03-27T05:44:55.629Z,82.13
2023-03-27T05:45:55.684Z,82.03
2023-03-27T05:46:55.594Z,82.13
2023-03-27T05:47:55.624Z,82.13
2023-03-27T05:48:55.543Z,82.13
2023-03-27T05:49:55.521Z,82.03
2023-03-27T05:50:55.712Z,82.27
2023-03-27T05:51:55.542Z,82.34
2023-03-27T05:52:55.509Z,82.34
2023-03-27T05:53:55.481Z,82.34
2023-03-27T05:54:55.480Z,81.92
2023-03-27T05:56:03.143Z,81.92
2023-03-27T05:56:56.498Z,81.92
2023-03-27T05:57:55.425Z,81.92
2023-03-27T05:58:55.415Z,81.88
2023-03-27T05:59:55.391Z,81.29
2023-03-27T06:00:55.618Z,81.09
2023-03-27T06:01:55.412Z,81.15
2023-03-27T06:02:55.441Z,80.84
2023-03-27T06:03:55.489Z,80.63
2023-03-27T06:04:55.346Z,80.53
2023-03-27T06:05:55.339Z,80.63
2023-03-27T06:06:55.349Z,80.43
2023-03-27T06:07:55.304Z,80.53
2023-03-27T06:08:55.288Z,80.53
2023-03-27T06:09:55.412Z,80.49
2023-03-27T06:10:55.575Z,80.29
2023-03-27T06:11:55.276Z,80.29
2023-03-27T06:12:55.249Z,80.32
2023-03-27T06:13:55.815Z,79.38
2023-03-27T06:14:55.235Z,79.35
2023-03-27T06:15:55.469Z,79.45
2023-03-27T06:16:55.241Z,79.03
2023-03-27T06:17:55.212Z,79.03
2023-03-27T06:18:55.227Z,79.35
2023-03-27T06:19:55.316Z,78.52
2023-03-27T06:20:55.349Z,78.52
2023-03-27T06:21:55.139Z,79.14
2023-03-27T06:22:55.137Z,79.21
2023-03-27T06:23:55.149Z,78.48
2023-03-27T06:24:55.284Z,78.58
2023-03-27T06:25:55.388Z,78.27
2023-03-27T06:26:55.985Z,78.27
2023-03-27T06:27:55.036Z,78.38
2023-03-27T06:28:55.029Z,77.96
2023-03-27T06:29:55.013Z,78.06
2023-03-27T06:30:55.105Z,77.96
2023-03-27T06:31:55.067Z,77.86
2023-03-27T06:32:55.026Z,78.27
2023-03-27T06:33:54.983Z,78.27
2023-03-27T06:34:54.971Z,78.48
2023-03-27T06:35:55.329Z,78.44
2023-03-27T06:36:54.936Z,78.34
2023-03-27T06:37:54.921Z,78.34
2023-03-27T06:38:54.923Z,78.44
2023-03-27T06:39:54.930Z,78.09
2023-03-27T06:40:55.075Z,77.47
2023-03-27T06:41:54.876Z,77.47
2023-03-27T06:42:54.860Z,77.68
2023-03-27T06:43:54.848Z,77.58
2023-03-27T06:44:54.857Z,77.16
2023-03-27T06:45:55.020Z,76.61
2023-03-27T06:46:54.856Z,75.40
2023-03-27T06:47:57.752Z,75.09
2023-03-27T06:48:55.914Z,75.85
2023-03-27T06:49:54.766Z,76.47
2023-03-27T06:50:54.806Z,76.26
2023-03-27T06:51:54.795Z,76.37
2023-03-27T06:52:54.740Z,76.89
2023-03-27T06:53:54.733Z,77.09
2023-03-27T06:54:54.727Z,77.37
2023-03-27T06:55:54.839Z,77.58
2023-03-27T06:56:54.727Z,76.95
2023-03-27T06:57:54.673Z,76.85
2023-03-27T06:58:54.680Z,77.26
2023-03-27T06:59:54.661Z,77.68
2023-03-27T07:00:54.634Z,77.58
2023-03-27T07:01:54.637Z,77.47
2023-03-27T07:02:54.625Z,76.95
2023-03-27T07:03:54.590Z,77.06
2023-03-27T07:05:04.339Z,77.47
2023-03-27T07:05:55.898Z,77.58
2023-03-27T07:06:54.767Z,77.47
2023-03-27T07:07:54.525Z,77.23
2023-03-27T07:08:54.570Z,76.81
2023-03-27T07:09:54.508Z,77.06
2023-03-27T07:11:54.564Z,77.68
2023-03-27T07:12:54.499Z,77.78
2023-03-27T07:13:54.472Z,77.58
2023-03-27T07:14:54.466Z,77.44
2023-03-27T07:15:54.479Z,77.54
2023-03-27T07:16:54.489Z,77.33
2023-03-27T07:17:54.677Z,76.61
2023-03-27T07:18:54.383Z,76.71
2023-03-27T07:19:54.378Z,77.12
2023-03-27T07:20:54.501Z,76.71
2023-03-27T07:21:54.384Z,76.81
2023-03-27T07:22:56.471Z,76.92
2023-03-27T07:23:54.323Z,76.09
2023-03-27T07:24:54.318Z,75.12
2023-03-27T07:25:54.538Z,75.23
2023-03-27T07:26:54.282Z,75.64
2023-03-27T07:27:54.265Z,75.43
2023-03-27T07:28:54.292Z,75.74
2023-03-27T07:29:54.480Z,76.06
2023-03-27T07:30:54.268Z,76.16
2023-03-27T07:31:57.859Z,76.26
2023-03-27T07:32:55.277Z,76.26
2023-03-27T07:33:54.299Z,75.54
2023-03-27T07:34:54.220Z,75.74
2023-03-27T07:35:54.275Z,75.74
2023-03-27T07:36:54.377Z,76.40
2023-03-27T07:37:54.129Z,76.29
2023-03-27T07:38:54.153Z,76.26
2023-03-27T07:39:54.119Z,75.71
2023-03-27T07:40:54.128Z,75.71
2023-03-27T07:41:54.123Z,75.19
2023-03-27T07:42:54.100Z,75.54
2023-03-27T07:43:54.058Z,75.98
2023-03-27T07:44:54.071Z,76.61
2023-03-27T07:45:54.084Z,76.75
2023-03-27T07:46:54.038Z,77.06
2023-03-27T07:47:54.134Z,76.95
2023-03-27T07:48:54.040Z,77.16
2023-03-27T07:49:53.980Z,76.81
2023-03-27T07:50:56.122Z,76.50
2023-03-27T07:51:53.981Z,75.02
2023-03-27T07:52:53.947Z,74.81
2023-03-27T07:53:53.938Z,74.81
2023-03-27T07:54:53.974Z,75.12
2023-03-27T07:55:53.970Z,74.91
2023-03-27T07:56:53.948Z,74.67
2023-03-27T07:58:01.292Z,74.36
2023-03-27T07:58:54.894Z,74.05
2023-03-27T07:59:53.902Z,73.22
2023-03-27T08:00:53.871Z,73.32
2023-03-27T08:01:53.855Z,73.63
2023-03-27T08:02:53.943Z,73.63
2023-03-27T08:03:53.972Z,73.43
2023-03-27T08:04:53.928Z,72.28
2023-03-27T08:05:53.795Z,71.97
2023-03-27T08:06:53.793Z,71.35
2023-03-27T08:07:53.796Z,70.94
2023-03-27T08:08:53.787Z,70.76
2023-03-27T08:09:53.738Z,70.45
2023-03-27T08:10:53.733Z,70.35
2023-03-27T08:11:53.774Z,70.35
2023-03-27T08:12:53.706Z,70.31
2023-03-27T08:13:53.683Z,70.42
2023-03-27T08:14:53.797Z,70.94
2023-03-27T08:15:53.657Z,70.83
2023-03-27T08:16:55.878Z,70.62
2023-03-27T08:17:55.554Z,70.59
2023-03-27T08:18:53.650Z,70.49
2023-03-27T08:19:53.643Z,69.45
2023-03-27T08:20:53.608Z,69.38
2023-03-27T08:21:53.578Z,69.90
2023-03-27T08:22:53.584Z,70.42
2023-03-27T08:23:54.445Z,70.31
2023-03-27T08:24:53.597Z,70.45
2023-03-27T08:25:53.588Z,70.31
2023-03-27T08:26:53.519Z,70.00
2023-03-27T08:27:53.504Z,70.00
2023-03-27T08:28:53.509Z,69.27
2023-03-27T08:29:53.494Z,69.27
2023-03-27T08:30:53.580Z,69.27
2023-03-27T08:31:54.497Z,69.59
2023-03-27T08:32:53.490Z,69.45
2023-03-27T08:33:53.428Z,68.55
2023-03-27T08:34:53.434Z,67.79
2023-03-27T08:35:53.421Z,67.30
2023-03-27T08:36:53.394Z,67.76
2023-03-27T08:37:53.377Z,68.07
2023-03-27T08:38:53.387Z,68.27
2023-03-27T08:39:53.360Z,68.27
2023-03-27T08:40:53.343Z,68.69
2023-03-27T08:41:53.341Z,68.44
2023-03-27T08:42:53.353Z,68.34
2023-03-27T08:43:53.308Z,68.13
2023-03-27T08:44:53.302Z,68.03
2023-03-27T08:45:53.299Z,68.21
2023-03-27T08:46:53.310Z,68.31
2023-03-27T08:47:53.318Z,68.38
2023-03-27T08:48:53.278Z,68.18
2023-03-27T08:49:53.244Z,68.07
2023-03-27T08:50:53.221Z,68.38
2023-03-27T08:51:53.210Z,68.41
2023-03-27T08:52:53.194Z,68.73
2023-03-27T08:53:53.214Z,68.73
2023-03-27T08:54:53.182Z,68.70
2023-03-27T08:55:53.151Z,67.55
2023-03-27T08:56:53.183Z,66.38
2023-03-27T08:57:53.139Z,65.25
2023-03-27T08:58:53.101Z,64.73
2023-03-27T08:59:53.122Z,64.62
2023-03-27T09:00:53.092Z,64.73
2023-03-27T09:01:53.148Z,64.73
2023-03-27T09:02:53.334Z,64.42
2023-03-27T09:03:53.274Z,64.07
2023-03-27T09:04:53.047Z,64.07
2023-03-27T09:05:53.030Z,64.18
2023-03-27T09:06:53.011Z,63.66
2023-03-27T09:07:53.016Z,63.69
2023-03-27T09:08:52.981Z,65.00
2023-03-27T09:09:53.017Z,65.41
2023-03-27T09:10:52.962Z,65.59
2023-03-27T09:11:53.020Z,65.48
2023-03-27T09:12:52.952Z,65.48
2023-03-27T09:13:52.927Z,65.59
2023-03-27T09:14:53.046Z,65.90
2023-03-27T09:15:52.976Z,65.90
2023-03-27T09:16:52.917Z,66.31
2023-03-27T09:17:52.990Z,66.21
2023-03-27T09:18:52.860Z,65.69
2023-03-27T09:19:52.867Z,65.80
2023-03-27T09:20:52.832Z,66.00
2023-03-27T09:21:52.829Z,65.80
2023-03-27T09:22:53.023Z,65.80
2023-03-27T09:23:52.797Z,65.72
2023-03-27T09:24:52.812Z,65.20
2023-03-27T09:25:53.369Z,64.86
2023-03-27T09:27:04.499Z,64.45
2023-03-27T09:27:53.758Z,63.93
2023-03-27T09:28:52.721Z,64.14
2023-03-27T09:29:52.744Z,64.24
2023-03-27T09:30:53.741Z,64.55
2023-03-27T09:31:52.755Z,64.24
2023-03-27T09:32:52.698Z,62.24
2023-03-27T09:33:52.695Z,62.11
2023-03-27T09:34:52.662Z,61.28
2023-03-27T09:35:52.744Z,60.53
2023-03-27T09:36:52.741Z,60.32
2023-03-27T09:37:52.623Z,60.01
2023-03-27T09:38:52.627Z,59.67
2023-03-27T09:39:52.681Z,58.74
2023-03-27T09:40:52.621Z,58.87
2023-03-27T09:41:52.582Z,60.22
2023-03-27T09:42:52.547Z,60.53
2023-03-27T09:43:52.578Z,60.25
2023-03-27T09:44:52.561Z,57.63
2023-03-27T09:45:52.553Z,58.77
2023-03-27T09:46:52.561Z,59.52
2023-03-27T09:47:52.555Z,57.14
2023-03-27T09:48:52.476Z,57.66
2023-03-27T09:49:52.492Z,58.28
2023-03-27T09:50:52.495Z,58.10
2023-03-27T09:51:52.449Z,58.93
2023-03-27T09:52:52.447Z,59.14
2023-03-27T09:53:52.431Z,58.51
2023-03-27T09:54:52.406Z,58.62
2023-03-27T09:55:52.410Z,57.56
2023-03-27T09:56:52.409Z,56.91
2023-03-27T09:57:52.385Z,56.39
2023-03-27T09:58:52.342Z,57.01
2023-03-27T09:59:52.388Z,57.53
2023-03-27T10:00:52.399Z,57.71
2023-03-27T10:01:52.317Z,57.63
2023-03-27T10:02:52.366Z,58.18
2023-03-27T10:03:52.399Z,58.90
2023-03-27T10:04:52.283Z,58.80
2023-03-27T10:05:52.292Z,58.67
2023-03-27T10:06:52.236Z,58.56
2023-03-27T10:07:52.237Z,58.56
2023-03-27T10:08:52.216Z,57.63
2023-03-27T10:09:52.222Z,57.42
2023-03-27T10:10:52.194Z,56.91
2023-03-27T10:11:52.197Z,56.88
2023-03-27T10:12:52.184Z,56.47
2023-03-27T10:13:52.216Z,57.12
2023-03-27T10:15:01.741Z,57.32
2023-03-27T10:15:52.169Z,57.66
2023-03-27T10:16:52.188Z,58.59
2023-03-27T10:17:52.185Z,58.98
2023-03-27T10:18:52.094Z,58.15
2023-03-27T10:19:52.155Z,58.36
2023-03-27T10:20:52.168Z,57.73
2023-03-27T10:21:52.094Z,57.42
2023-03-27T10:22:54.462Z,57.32
2023-03-27T10:23:52.029Z,57.42
2023-03-27T10:24:52.317Z,57.12
2023-03-27T10:25:52.057Z,56.77
2023-03-27T10:26:52.006Z,56.47
2023-03-27T10:27:51.990Z,55.51
2023-03-27T10:28:52.006Z,54.68
2023-03-27T10:29:51.979Z,54.91
2023-03-27T10:30:51.966Z,55.30
2023-03-27T10:31:52.013Z,55.41
2023-03-27T10:32:52.008Z,55.28
2023-03-27T10:33:51.935Z,54.66
2023-03-27T10:34:51.913Z,54.97
2023-03-27T10:35:51.960Z,54.35
2023-03-27T10:36:51.920Z,54.45
2023-03-27T10:37:51.990Z,54.55
2023-03-27T10:38:52.374Z,54.40
2023-03-27T10:39:51.836Z,53.89
2023-03-27T10:40:51.922Z,53.58
2023-03-27T10:41:51.840Z,52.75
2023-03-27T10:42:52.497Z,52.15
2023-03-27T10:43:52.230Z,52.88
2023-03-27T10:44:51.772Z,53.42
2023-03-27T10:45:51.895Z,53.42
2023-03-27T10:46:51.763Z,53.42
2023-03-27T10:47:51.802Z,53.21
2023-03-27T10:48:51.773Z,53.21
2023-03-27T10:49:51.765Z,54.66
2023-03-27T10:50:51.712Z,55.20
2023-03-27T10:51:51.756Z,55.62
2023-03-27T10:52:51.696Z,55.93
2023-03-27T10:53:51.785Z,54.68
2023-03-27T10:54:51.676Z,54.45
2023-03-27T10:55:51.744Z,54.55
2023-03-27T10:56:51.649Z,54.32
2023-03-27T10:57:51.622Z,53.68
2023-03-27T10:58:51.602Z,53.58
2023-03-27T10:59:51.657Z,53.66
2023-03-27T11:00:51.647Z,51.59
2023-03-27T11:01:51.585Z,51.51
2023-03-27T11:02:51.577Z,50.92
2023-03-27T11:03:51.600Z,51.64
2023-03-27T11:04:51.517Z,51.54
2023-03-27T11:05:51.523Z,51.54
2023-03-27T11:06:51.483Z,52.05
2023-03-27T11:07:51.543Z,52.15
2023-03-27T11:08:51.545Z,52.36
2023-03-27T11:09:51.445Z,52.88
2023-03-27T11:10:51.411Z,52.36
2023-03-27T11:11:51.432Z,52.26
2023-03-27T11:12:51.446Z,51.12
2023-03-27T11:13:51.415Z,50.71
2023-03-27T11:14:51.415Z,50.81
2023-03-27T11:15:51.406Z,50.71
2023-03-27T11:16:51.411Z,51.23
2023-03-27T11:17:51.423Z,50.79
2023-03-27T11:18:51.327Z,50.60
2023-03-27T11:19:51.330Z,50.79
2023-03-27T11:20:51.314Z,50.89
2023-03-27T11:21:51.294Z,50.97
2023-03-27T11:22:51.278Z,50.76
2023-03-27T11:23:51.404Z,50.66
2023-03-27T11:24:51.260Z,50.43
2023-03-27T11:25:51.317Z,49.61
2023-03-27T11:26:51.253Z,49.30
2023-03-27T11:27:51.238Z,49.63
2023-03-27T11:28:51.238Z,50.23
2023-03-27T11:29:51.241Z,50.33
2023-03-27T11:30:51.236Z,50.23
2023-03-27T11:31:51.289Z,50.33
2023-03-27T11:32:51.215Z,50.23
2023-03-27T11:33:51.162Z,49.63
2023-03-27T11:34:51.135Z,50.04
2023-03-27T11:35:51.178Z,50.04
2023-03-27T11:36:51.449Z,50.38
2023-03-27T11:37:51.126Z,50.79
2023-03-27T11:38:51.083Z,51.20
2023-03-27T11:39:51.179Z,52.13
2023-03-27T11:40:51.060Z,52.34
2023-03-27T11:41:51.046Z,52.21
2023-03-27T11:42:51.032Z,51.67
2023-03-27T11:43:51.058Z,51.78
2023-03-27T11:44:51.012Z,52.08
2023-03-27T11:45:51.019Z,52.60
2023-03-27T11:46:50.974Z,52.68
2023-03-27T11:47:51.003Z,53.30
2023-03-27T11:48:50.959Z,52.98
2023-03-27T11:49:51.000Z,53.30
2023-03-27T11:50:50.971Z,53.48
2023-03-27T11:51:50.917Z,53.48
2023-03-27T11:52:51.794Z,50.70
2023-03-27T11:53:50.904Z,50.82
2023-03-27T11:54:50.860Z,50.84
2023-03-27T11:55:50.846Z,51.79
2023-03-27T11:56:50.873Z,52.50
2023-03-27T11:57:50.858Z,51.95
2023-03-27T11:58:51.050Z,51.21
2023-03-27T11:59:50.790Z,49.87
2023-03-27T12:00:50.792Z,49.56
2023-03-27T12:01:50.813Z,49.66
2023-03-27T12:02:50.822Z,49.15
2023-03-27T12:03:50.869Z,49.56
2023-03-27T12:04:50.741Z,49.35
2023-03-27T12:05:50.748Z,48.74
2023-03-27T12:06:51.545Z,49.17
2023-03-27T12:07:50.710Z,49.90
2023-03-27T12:08:50.679Z,50.84
2023-03-27T12:09:50.676Z,51.90
2023-03-27T12:10:50.683Z,52.55
2023-03-27T12:11:50.684Z,53.99
2023-03-27T12:12:50.637Z,55.02
2023-03-27T12:14:00.472Z,56.26
2023-03-27T12:14:51.673Z,56.90
2023-03-27T12:15:50.595Z,59.34
2023-03-27T12:16:50.699Z,59.99
2023-03-27T12:17:50.664Z,60.60
2023-03-27T12:19:01.995Z,61.54
2023-03-27T12:19:51.651Z,61.33
2023-03-27T12:20:53.607Z,59.95
2023-03-27T12:21:50.527Z,59.78
2023-03-27T12:22:50.520Z,60.09
2023-03-27T12:23:50.471Z,60.30
2023-03-27T12:24:59.438Z,60.78
2023-03-27T12:25:51.495Z,60.06
2023-03-27T12:26:50.525Z,58.59
2023-03-27T12:27:50.404Z,56.93
2023-03-27T12:28:50.418Z,57.86
2023-03-27T12:29:50.454Z,57.84
2023-03-27T12:30:50.388Z,55.95
2023-03-27T12:31:50.509Z,56.46
2023-03-27T12:32:51.064Z,55.72
2023-03-27T12:33:50.489Z,54.17
2023-03-27T12:34:51.337Z,54.17
2023-03-27T12:35:50.491Z,54.66
2023-03-27T12:36:50.407Z,54.58
2023-03-27T12:37:50.336Z,54.69
2023-03-27T12:38:50.355Z,54.58
2023-03-27T12:39:51.911Z,54.79
2023-03-27T12:40:50.266Z,55.00
2023-03-27T12:41:50.266Z,55.41
2023-03-27T12:42:50.372Z,54.97
2023-03-27T12:43:50.233Z,54.56
2023-03-27T12:44:50.206Z,54.56
2023-03-27T12:45:53.400Z,53.40
2023-03-27T12:46:50.265Z,53.89
2023-03-27T12:47:50.206Z,52.34
2023-03-27T12:48:50.310Z,52.94
2023-03-27T12:49:50.212Z,51.60
2023-03-27T12:50:50.157Z,52.09
2023-03-27T12:51:50.133Z,50.96
2023-03-27T12:52:50.123Z,51.06
2023-03-27T12:53:50.101Z,51.26